Terminal Aerodrome Forecast
Issued by NWS

Home | Current Version | Previous Version | Text Only | Print | Product List | Glossary Off
Versions: 1 2 3 4 5 6 7 8 9 10 11 12 13 14 15 16

778
FTUS43 KTOP 261742
TAFFOE
TAF
KFOE 261742Z 2618/2718 05007KT P6SM SCT070
     FM262000 02005KT P6SM VCTS SCT060CB
     FM262300 36006KT P6SM SCT090=

USA.gov is the U.S. government's official web portal to all federal, state and local government web resources and services.